createdAt,value
2023-09-14T00:09:40.883Z,14.2
2023-09-14T00:25:01.846Z,14.2
2023-09-14T00:40:22.805Z,14
2023-09-14T00:55:43.766Z,14
2023-09-14T01:11:04.740Z,14
2023-09-14T01:26:25.694Z,13.9
2023-09-14T01:41:46.656Z,14.1
2023-09-14T01:57:07.596Z,14
2023-09-14T02:12:28.572Z,13.9
2023-09-14T02:27:49.541Z,14
2023-09-14T02:43:09.528Z,14
2023-09-14T02:58:30.484Z,13.9
2023-09-14T03:13:51.454Z,13.9
2023-09-14T03:29:12.415Z,13.8
2023-09-14T03:44:33.354Z,13.8
2023-09-14T03:59:54.340Z,13.5
2023-09-14T04:30:36.226Z,13.4
2023-09-14T04:45:57.131Z,13.4
2023-09-14T05:01:18.053Z,13.3
2023-09-14T05:16:38.975Z,13.4
2023-09-14T05:47:20.814Z,13.4
2023-09-14T06:18:02.768Z,13.2
2023-09-14T06:33:23.693Z,13.4
2023-09-14T06:48:44.606Z,13.6
2023-09-14T07:04:05.548Z,13.6
2023-09-14T07:19:26.465Z,13.9
2023-09-14T07:34:47.393Z,14.7
2023-09-14T07:50:08.298Z,15.2
2023-09-14T08:20:50.111Z,16.7
2023-09-14T08:51:31.951Z,17.4
2023-09-14T09:06:52.909Z,17.6
2023-09-14T09:08:12.982Z,17.7
2023-09-14T09:09:34.057Z,17.7
2023-09-14T09:10:55.121Z,17.7
2023-09-14T09:12:16.160Z,17.7
2023-09-14T09:13:37.266Z,17.9
2023-09-14T09:14:58.326Z,18.1
2023-09-14T09:16:19.398Z,17.9
2023-09-14T09:17:40.472Z,17.7
2023-09-14T09:19:01.495Z,17.7
2023-09-14T09:20:22.567Z,18
2023-09-14T09:21:43.679Z,18.3
2023-09-14T09:23:04.756Z,18.5
2023-09-14T09:24:25.838Z,18.4
2023-09-14T09:25:45.897Z,18.6
2023-09-14T09:27:07.005Z,18.7
2023-09-14T09:28:28.081Z,18.8
2023-09-14T09:29:49.163Z,19
2023-09-14T09:31:10.228Z,19.5
2023-09-14T09:32:31.306Z,19.5
2023-09-14T09:33:52.400Z,19.5
2023-09-14T09:35:13.428Z,19.5
2023-09-14T09:36:34.542Z,19.7
2023-09-14T09:37:55.599Z,20
2023-09-14T09:39:16.709Z,20
2023-09-14T09:40:37.750Z,19.9
2023-09-14T09:41:58.815Z,20
2023-09-14T09:43:18.959Z,20.5
2023-09-14T09:44:40.024Z,20.6
2023-09-14T09:46:01.095Z,21
2023-09-14T09:47:22.172Z,21.2
2023-09-14T09:48:43.219Z,21.2
2023-09-14T09:50:04.306Z,21.2
2023-09-14T09:51:25.364Z,20.9
2023-09-14T09:52:46.481Z,20.9
2023-09-14T09:54:07.551Z,20.5
2023-09-14T09:55:28.609Z,20.3
2023-09-14T09:56:49.671Z,20.4
2023-09-14T09:58:10.795Z,20.6
2023-09-14T09:59:31.820Z,20.8
2023-09-14T10:00:51.920Z,20.9
2023-09-14T10:02:13.035Z,21
2023-09-14T10:03:34.068Z,21
2023-09-14T10:04:55.144Z,21.3
2023-09-14T10:06:16.223Z,21.5
2023-09-14T10:07:37.341Z,21.6
2023-09-14T10:08:57.450Z,21.5
2023-09-14T10:11:39.596Z,21.4
2023-09-14T10:13:00.665Z,21.2
2023-09-14T10:14:21.742Z,21
2023-09-14T10:15:42.783Z,20.9
2023-09-14T10:17:03.900Z,21.4
2023-09-14T10:18:24.976Z,22
2023-09-14T10:19:46.066Z,22.3
2023-09-14T10:21:07.149Z,22.4
2023-09-14T10:22:28.175Z,22.4
2023-09-14T10:23:49.299Z,22.4
2023-09-14T10:25:10.343Z,22.4
2023-09-14T10:26:30.455Z,22.7
2023-09-14T10:27:51.535Z,23
2023-09-14T10:29:12.623Z,22.9
2023-09-14T10:30:33.654Z,22.6
2023-09-14T10:31:54.766Z,22.3
2023-09-14T10:33:15.850Z,22.3
2023-09-14T10:34:36.918Z,22.5
2023-09-14T10:35:57.958Z,22.5
2023-09-14T10:37:19.048Z,22.2
2023-09-14T10:38:40.159Z,21.9
2023-09-14T10:40:01.237Z,21.9
2023-09-14T10:41:22.319Z,22.2
2023-09-14T10:42:43.355Z,22.6
2023-09-14T10:44:03.475Z,22.7
2023-09-14T10:45:24.511Z,22.4
2023-09-14T10:46:45.583Z,22.5
2023-09-14T10:48:06.697Z,22.8
2023-09-14T10:49:27.772Z,23
2023-09-14T10:50:48.820Z,23.3
2023-09-14T10:52:09.927Z,23.2
2023-09-14T10:53:31.009Z,23.3
2023-09-14T10:54:52.083Z,23.4
2023-09-14T10:56:13.115Z,23.8
2023-09-14T10:57:34.197Z,24
2023-09-14T10:58:55.273Z,24.3
2023-09-14T11:00:16.347Z,24.5
2023-09-14T11:01:36.450Z,24.8
2023-09-14T11:02:57.558Z,24.7
2023-09-14T11:04:18.589Z,24
2023-09-14T11:05:39.703Z,23.2
2023-09-14T11:07:00.785Z,22.5
2023-09-14T11:08:21.875Z,21.9
2023-09-14T11:09:42.940Z,21.5
2023-09-14T11:11:04.029Z,21.1
2023-09-14T11:12:25.102Z,21
2023-09-14T11:13:46.159Z,20.9
2023-09-14T11:15:07.240Z,20.6
2023-09-14T11:16:28.317Z,20.4
2023-09-14T11:17:49.359Z,20.3
2023-09-14T11:19:09.442Z,20.2
2023-09-14T11:20:30.526Z,20.2
2023-09-14T11:21:51.612Z,20.2
2023-09-14T11:23:12.690Z,20.7
2023-09-14T11:24:33.782Z,21.4
2023-09-14T11:25:54.793Z,21
2023-09-14T11:27:15.861Z,20.8
2023-09-14T11:28:36.962Z,20.5
2023-09-14T11:29:58.029Z,20.2
2023-09-14T11:31:19.098Z,19.9
2023-09-14T11:32:40.169Z,19.9
2023-09-14T11:34:01.241Z,19.7
2023-09-14T11:35:22.271Z,19.8
2023-09-14T11:36:42.361Z,19.9
2023-09-14T11:38:03.457Z,20
2023-09-14T11:39:24.483Z,20
2023-09-14T11:40:45.547Z,20.5
2023-09-14T11:42:06.653Z,20.4
2023-09-14T11:43:27.671Z,20.2
2023-09-14T11:44:48.784Z,20.1
2023-09-14T11:46:09.817Z,19.9
2023-09-14T11:47:30.923Z,19.8
2023-09-14T11:48:51.985Z,19.7
2023-09-14T11:50:13.041Z,19.7
2023-09-14T11:51:34.116Z,19.7
2023-09-14T11:52:55.193Z,19.7
2023-09-14T11:54:15.275Z,19.8
2023-09-14T11:55:36.288Z,19.9
2023-09-14T11:56:57.352Z,19.9
2023-09-14T11:58:18.457Z,19.9
2023-09-14T11:59:39.501Z,20
2023-09-14T12:01:00.558Z,20.1
2023-09-14T12:02:21.671Z,20.2
2023-09-14T12:03:42.738Z,20.2
2023-09-14T12:05:03.753Z,20.3
2023-09-14T12:06:24.874Z,20.5
2023-09-14T12:07:45.935Z,20.7
2023-09-14T12:09:06.974Z,20.8
2023-09-14T12:10:28.067Z,20.8
2023-09-14T12:11:48.160Z,21.1
2023-09-14T12:13:09.237Z,21.4
2023-09-14T12:14:30.314Z,22.4
2023-09-14T12:15:51.380Z,23.3
2023-09-14T12:17:12.459Z,24.2
2023-09-14T12:18:33.496Z,25.1
2023-09-14T12:19:54.629Z,26
2023-09-14T12:21:15.689Z,26
2023-09-14T12:22:36.769Z,26.2
2023-09-14T12:23:57.862Z,26
2023-09-14T12:25:18.928Z,26
2023-09-14T12:26:40.017Z,26.2
2023-09-14T12:28:01.100Z,26.2
2023-09-14T12:29:21.198Z,26.6
2023-09-14T12:30:42.267Z,26.9
2023-09-14T12:32:03.343Z,27.3
2023-09-14T12:33:24.426Z,27.1
2023-09-14T12:34:45.460Z,27.1
2023-09-14T12:36:06.530Z,26.4
2023-09-14T12:37:27.617Z,25.5
2023-09-14T12:38:48.738Z,25.3
2023-09-14T12:40:09.803Z,24.4
2023-09-14T12:41:30.833Z,24.2
2023-09-14T12:42:51.964Z,24.7
2023-09-14T12:44:12.993Z,25.1
2023-09-14T12:45:34.118Z,25.8
2023-09-14T12:46:54.207Z,26.3
2023-09-14T12:48:15.239Z,26.4
2023-09-14T12:49:36.329Z,25.5
2023-09-14T12:50:57.388Z,25.3
2023-09-14T12:52:18.474Z,24.6
2023-09-14T12:53:39.583Z,23.8
2023-09-14T12:55:00.636Z,23.2
2023-09-14T12:56:21.698Z,22.7
2023-09-14T12:57:42.775Z,22.2
2023-09-14T12:59:03.910Z,21.6
2023-09-14T13:00:24.986Z,21.3
2023-09-14T13:01:46.021Z,21
2023-09-14T13:03:07.089Z,20.9
2023-09-14T13:04:27.217Z,20.8
2023-09-14T13:05:48.244Z,20.8
2023-09-14T13:07:09.357Z,20.7
2023-09-14T13:08:30.414Z,20.8
2023-09-14T13:09:51.494Z,20.8
2023-09-14T13:11:12.533Z,20.8
2023-09-14T13:12:33.627Z,20.6
2023-09-14T13:13:54.696Z,20.5
2023-09-14T13:15:15.788Z,20.5
2023-09-14T13:16:36.835Z,20.5
2023-09-14T13:17:57.869Z,20.6
2023-09-14T13:19:18.976Z,20.6
2023-09-14T13:20:40.045Z,20.7
2023-09-14T13:22:00.147Z,20.7
2023-09-14T13:23:21.208Z,20.8
2023-09-14T13:24:42.282Z,20.7
2023-09-14T13:26:03.347Z,20.8
2023-09-14T13:27:24.416Z,20.8
2023-09-14T13:28:45.493Z,21
2023-09-14T13:30:06.582Z,21.4
2023-09-14T13:31:27.639Z,21.7
2023-09-14T13:32:48.670Z,22.2
2023-09-14T13:34:09.741Z,22.3
2023-09-14T13:35:30.861Z,22.4
2023-09-14T13:36:51.899Z,23
2023-09-14T13:38:12.971Z,23.6
2023-09-14T13:39:34.167Z,24.2
2023-09-14T13:42:16.325Z,25.7
2023-09-14T13:43:37.437Z,25.8
2023-09-14T13:44:58.524Z,26
2023-09-14T13:46:19.602Z,26.1
2023-09-14T13:47:40.690Z,26.3
2023-09-14T13:49:01.764Z,26.1
2023-09-14T13:50:22.803Z,26.5
2023-09-14T13:51:43.922Z,26.8
2023-09-14T13:53:04.949Z,26.8
2023-09-14T13:54:26.068Z,26.9
2023-09-14T13:55:47.117Z,26.8
2023-09-14T13:57:08.225Z,27.1
2023-09-14T13:58:29.386Z,27.3
2023-09-14T13:59:50.504Z,27.1
2023-09-14T14:01:11.584Z,27.1
2023-09-14T14:02:32.618Z,26.9
2023-09-14T14:03:53.752Z,26.4
2023-09-14T14:05:14.825Z,26.8
2023-09-14T14:06:35.845Z,27.2
2023-09-14T14:07:56.985Z,27
2023-09-14T14:09:18.049Z,27
2023-09-14T14:10:39.075Z,27.1
2023-09-14T14:12:00.198Z,27.2
2023-09-14T14:14:42.356Z,26.2
2023-09-14T14:16:02.415Z,26.6
2023-09-14T14:17:23.525Z,26.9
2023-09-14T14:18:44.603Z,27.2
2023-09-14T14:20:05.693Z,27.3
2023-09-14T14:21:26.768Z,27.4
2023-09-14T14:22:47.785Z,27.2
2023-09-14T14:24:08.918Z,26.8
2023-09-14T14:25:29.949Z,25.8
2023-09-14T14:26:51.032Z,24.9
2023-09-14T14:28:12.157Z,24.2
2023-09-14T14:29:33.181Z,24
2023-09-14T14:30:54.314Z,24.2
2023-09-14T14:32:15.343Z,23.8
2023-09-14T14:33:36.577Z,23.3
2023-09-14T14:34:57.614Z,23
2023-09-14T14:36:18.723Z,22.8
2023-09-14T14:37:39.786Z,22.5
2023-09-14T14:39:00.861Z,22.2
2023-09-14T14:40:20.911Z,22.1
2023-09-14T14:41:42.002Z,22.6
2023-09-14T14:43:03.063Z,22.4
2023-09-14T14:44:24.127Z,22.1
2023-09-14T14:45:45.180Z,21.2
2023-09-14T14:47:06.304Z,21.4
2023-09-14T14:48:27.323Z,21.1
2023-09-14T14:49:48.438Z,20.7
2023-09-14T14:51:09.461Z,20.6
2023-09-14T14:52:30.534Z,20.6
2023-09-14T14:53:51.642Z,20.6
2023-09-14T14:55:12.710Z,20.4
2023-09-14T14:56:33.735Z,20.5
2023-09-14T14:57:53.815Z,20.5
2023-09-14T14:59:14.930Z,20.5
2023-09-14T15:00:35.997Z,20.5
2023-09-14T15:03:18.127Z,20.9
2023-09-14T15:04:39.185Z,20.9
2023-09-14T15:06:00.223Z,20.6
2023-09-14T15:07:21.280Z,20.5
2023-09-14T15:08:42.397Z,20.6
2023-09-14T15:10:03.420Z,20.6
2023-09-14T15:11:24.492Z,20.3
2023-09-14T15:12:45.550Z,20.1
2023-09-14T15:14:06.679Z,19.9
2023-09-14T15:15:26.774Z,19.6
2023-09-14T15:16:47.788Z,19.6
2023-09-14T15:18:08.904Z,19.9
2023-09-14T15:19:29.923Z,20.1
2023-09-14T15:20:50.988Z,19.9
2023-09-14T15:22:12.038Z,19.9
2023-09-14T15:23:33.166Z,20.1
2023-09-14T15:24:54.225Z,20.2
2023-09-14T15:26:15.295Z,20.2
2023-09-14T15:27:36.309Z,20.8
2023-09-14T15:28:57.431Z,21.4
2023-09-14T15:30:18.440Z,21.6
2023-09-14T15:31:39.510Z,22.1
2023-09-14T15:32:59.641Z,22.5
2023-09-14T15:34:20.647Z,22.7
2023-09-14T15:35:41.718Z,22.9
2023-09-14T15:37:02.780Z,23.2
2023-09-14T15:38:23.857Z,23.3
2023-09-14T15:39:44.927Z,23.5
2023-09-14T15:41:06.050Z,23.7
2023-09-14T15:42:27.100Z,23.5
2023-09-14T15:43:48.167Z,23
2023-09-14T15:45:09.228Z,22.7
2023-09-14T15:46:30.305Z,22.6
2023-09-14T15:47:51.328Z,22.6
2023-09-14T15:49:12.446Z,22.6
2023-09-14T15:50:32.543Z,22.9
2023-09-14T15:51:53.617Z,23
2023-09-14T15:53:14.699Z,23
2023-09-14T15:54:35.762Z,23.1
2023-09-14T15:55:56.839Z,23.2
2023-09-14T15:57:17.845Z,22.9
2023-09-14T15:58:38.919Z,22.3
2023-09-14T16:00:00.046Z,21.9
2023-09-14T16:01:21.110Z,21.7
2023-09-14T16:02:42.166Z,21.8
2023-09-14T16:04:03.186Z,21.8
2023-09-14T16:05:24.299Z,21.6
2023-09-14T16:06:45.325Z,21.6
2023-09-14T16:08:06.513Z,21.7
2023-09-14T16:09:27.622Z,21.7
2023-09-14T16:10:48.705Z,21.6
2023-09-14T16:12:09.719Z,21.4
2023-09-14T16:13:30.779Z,21.2
2023-09-14T16:14:51.847Z,20.9
2023-09-14T16:16:12.933Z,20.7
2023-09-14T16:17:33.987Z,20.5
2023-09-14T16:18:55.060Z,20.2
2023-09-14T16:20:16.192Z,20.1
2023-09-14T16:21:37.190Z,19.9
2023-09-14T16:22:58.322Z,19.9
2023-09-14T16:24:19.324Z,19.9
2023-09-14T16:25:39.457Z,19.7
2023-09-14T16:27:00.471Z,19.7
2023-09-14T16:28:21.594Z,19.6
2023-09-14T16:29:42.666Z,19.6
2023-09-14T16:31:03.733Z,19.6
2023-09-14T16:32:24.807Z,19.6
2023-09-14T16:33:45.808Z,19.7
2023-09-14T16:35:06.871Z,19.8
2023-09-14T16:36:28.001Z,19.8
2023-09-14T16:37:49.060Z,19.7
2023-09-14T16:39:10.073Z,19.8
2023-09-14T16:40:31.132Z,19.6
2023-09-14T16:41:52.261Z,19.5
2023-09-14T16:43:12.338Z,19.3
2023-09-14T16:44:33.344Z,19.4
2023-09-14T16:45:54.471Z,19.2
2023-09-14T16:47:15.546Z,19.3
2023-09-14T16:48:36.603Z,19.2
2023-09-14T16:49:57.681Z,19.2
2023-09-14T16:51:18.740Z,19
2023-09-14T16:52:39.812Z,19
2023-09-14T16:54:00.822Z,18.9
2023-09-14T16:55:21.935Z,18.8
2023-09-14T16:56:42.952Z,18.8
2023-09-14T16:58:04.069Z,18.7
2023-09-14T16:59:25.151Z,18.5
2023-09-14T17:00:45.228Z,18.5
2023-09-14T17:02:06.238Z,18.4
2023-09-14T17:03:27.309Z,18.4
2023-09-14T17:04:48.377Z,18.3
2023-09-14T17:06:09.480Z,18.2
2023-09-14T17:07:30.507Z,18.1
2023-09-14T17:08:51.614Z,18.1
2023-09-14T17:10:12.628Z,18
2023-09-14T17:11:33.751Z,18
2023-09-14T17:12:54.764Z,17.9
2023-09-14T17:14:15.823Z,17.8
2023-09-14T17:15:36.952Z,17.8
2023-09-14T17:16:57.957Z,17.6
2023-09-14T17:18:18.097Z,17.5
2023-09-14T17:19:39.115Z,17.4
2023-09-14T17:21:00.185Z,17.2
2023-09-14T17:22:21.234Z,17
2023-09-14T17:23:42.361Z,16.8
2023-09-14T17:25:03.377Z,16.7
2023-09-14T17:26:24.503Z,16.6
2023-09-14T17:27:45.561Z,16.4
2023-09-14T17:29:06.570Z,16.4
2023-09-14T17:30:27.657Z,16.2
2023-09-14T17:31:48.722Z,16.1
2023-09-14T17:33:09.767Z,15.9
2023-09-14T17:34:30.831Z,15.9
2023-09-14T17:35:50.923Z,15.7
2023-09-14T17:37:11.978Z,15.6
2023-09-14T17:38:33.046Z,15.5
2023-09-14T17:39:54.138Z,15.3
2023-09-14T17:41:15.194Z,15.2
2023-09-14T17:42:36.255Z,15
2023-09-14T17:43:57.328Z,14.9
2023-09-14T17:45:18.389Z,14.8
2023-09-14T17:46:39.453Z,14.7
2023-09-14T17:48:00.523Z,14.8
2023-09-14T17:49:21.594Z,14.5
2023-09-14T17:50:42.684Z,14.4
2023-09-14T17:52:03.759Z,14.3
2023-09-14T17:53:23.877Z,14.3
2023-09-14T17:54:44.999Z,14.1
2023-09-14T17:56:06.066Z,14
2023-09-14T17:57:27.122Z,14
2023-09-14T17:58:48.243Z,13.9
2023-09-14T18:00:09.345Z,13.8
2023-09-14T18:01:30.453Z,13.7
2023-09-14T18:02:51.582Z,13.7
2023-09-14T18:04:12.679Z,13.7
2023-09-14T18:05:33.782Z,13.6
2023-09-14T18:06:54.889Z,13.5
2023-09-14T18:08:16.013Z,13.5
2023-09-14T18:09:37.121Z,13.4
2023-09-14T18:10:57.233Z,13.4
2023-09-14T18:12:18.000Z,13.3
2023-09-14T18:13:39.469Z,13.3
2023-09-14T18:15:00.587Z,13.2
2023-09-14T18:16:21.693Z,13.1
2023-09-14T18:17:42.806Z,13.1
2023-09-14T18:19:03.917Z,13
2023-09-14T18:20:25.010Z,13
2023-09-14T18:21:46.121Z,12.9
2023-09-14T18:23:07.235Z,12.9
2023-09-14T18:24:28.343Z,12.7
2023-09-14T18:25:49.459Z,12.8
2023-09-14T18:27:10.568Z,12.8
2023-09-14T18:28:31.676Z,12.8
2023-09-14T18:29:51.818Z,12.7
2023-09-14T18:31:12.912Z,12.6
2023-09-14T18:32:34.023Z,12.6
2023-09-14T18:35:16.245Z,12.4
2023-09-14T18:36:37.335Z,12.4
2023-09-14T18:37:58.458Z,12.4
2023-09-14T18:39:19.559Z,12.4
2023-09-14T18:40:40.682Z,12.2
2023-09-14T18:42:01.774Z,12.3
2023-09-14T18:43:22.890Z,12.1
2023-09-14T18:44:44.002Z,12.1
2023-09-14T18:46:05.104Z,11.9
2023-09-14T18:47:26.346Z,12
2023-09-14T18:48:47.435Z,11.9
2023-09-14T18:50:08.544Z,11.9
2023-09-14T18:51:29.660Z,11.8
2023-09-14T18:52:50.779Z,11.9
2023-09-14T18:54:11.880Z,11.8
2023-09-14T18:55:32.986Z,11.8
2023-09-14T18:56:54.105Z,11.7
2023-09-14T18:58:15.206Z,11.7
2023-09-14T18:59:36.322Z,11.5
2023-09-14T19:00:57.436Z,11.7
2023-09-14T19:02:18.540Z,11.5
2023-09-14T19:03:39.647Z,11.5
2023-09-14T19:04:59.759Z,11.6
2023-09-14T19:06:20.872Z,11.5
2023-09-14T19:07:41.998Z,11.5
2023-09-14T19:09:03.094Z,11.4
2023-09-14T19:10:24.191Z,11.3
2023-09-14T19:11:45.430Z,11.4
2023-09-14T19:13:06.549Z,11.3
2023-09-14T19:14:27.666Z,11.3
2023-09-14T19:15:48.768Z,11.2
2023-09-14T19:17:09.877Z,11.2
2023-09-14T19:18:30.969Z,11.1
2023-09-14T19:19:52.098Z,11.2
2023-09-14T19:21:13.213Z,11
2023-09-14T19:22:34.322Z,11
2023-09-14T19:23:55.423Z,11.1
2023-09-14T19:25:16.543Z,11
2023-09-14T19:26:37.630Z,10.9
2023-09-14T19:27:58.749Z,11
2023-09-14T19:29:18.873Z,10.9
2023-09-14T19:30:39.984Z,11
2023-09-14T19:32:01.090Z,10.9
2023-09-14T19:33:22.189Z,11
2023-09-14T19:34:43.306Z,10.9
2023-09-14T19:36:04.404Z,10.9
2023-09-14T19:37:25.523Z,10.8
2023-09-14T19:38:46.631Z,10.7
2023-09-14T19:40:07.738Z,10.8
2023-09-14T19:41:28.852Z,10.8
2023-09-14T19:42:49.963Z,10.9
2023-09-14T19:44:11.057Z,10.8
2023-09-14T19:45:32.177Z,10.8
2023-09-14T19:46:53.395Z,10.6
2023-09-14T19:48:14.517Z,10.8
2023-09-14T19:49:35.622Z,10.6
2023-09-14T19:50:56.736Z,10.6
2023-09-14T19:52:17.829Z,10.6
2023-09-14T19:53:38.946Z,10.6
2023-09-14T19:55:00.064Z,10.6
2023-09-14T19:56:21.167Z,10.5
2023-09-14T19:57:42.271Z,10.5
2023-09-14T19:59:03.377Z,10.5
2023-09-14T20:00:24.503Z,10.6
2023-09-14T20:01:45.615Z,10.6
2023-09-14T20:03:06.712Z,10.5
2023-09-14T20:04:26.837Z,10.6
2023-09-14T20:05:47.941Z,10.6
2023-09-14T20:07:09.060Z,10.5
2023-09-14T20:08:30.183Z,10.5
2023-09-14T20:09:51.292Z,10.4
2023-09-14T20:11:12.395Z,10.5
2023-09-14T20:12:33.489Z,10.4
2023-09-14T20:13:54.608Z,10.4
2023-09-14T20:15:15.718Z,10.4
2023-09-14T20:16:36.817Z,10.4
2023-09-14T20:17:57.954Z,10.4
2023-09-14T20:19:19.030Z,10.4
2023-09-14T20:20:40.158Z,10.3
2023-09-14T20:22:00.275Z,10.5
2023-09-14T20:23:21.367Z,10.4
2023-09-14T20:24:42.494Z,10.4
2023-09-14T20:26:03.592Z,10.3
2023-09-14T20:27:24.712Z,10.3
2023-09-14T20:28:45.828Z,10.5
2023-09-14T20:30:06.913Z,10.4
2023-09-14T20:31:28.018Z,10.4
2023-09-14T20:32:49.131Z,10.5
2023-09-14T20:34:10.243Z,10.4
2023-09-14T20:35:31.369Z,10.4
2023-09-14T20:36:52.487Z,10.3
2023-09-14T20:38:13.567Z,10.4
2023-09-14T20:39:33.716Z,10.3
2023-09-14T20:40:54.821Z,10.3
2023-09-14T20:42:15.944Z,10.1
2023-09-14T20:43:37.023Z,10.1
2023-09-14T20:44:58.153Z,10
2023-09-14T20:46:19.237Z,10.1
2023-09-14T20:47:40.361Z,10
2023-09-14T20:49:01.490Z,10
2023-09-14T20:50:22.595Z,10
2023-09-14T20:51:43.682Z,9.9
2023-09-14T20:53:04.785Z,10
2023-09-14T20:54:25.896Z,10
2023-09-14T20:55:47.037Z,9.9
2023-09-14T20:57:07.134Z,9.9
2023-09-14T20:58:28.251Z,9.8
2023-09-14T20:59:49.365Z,9.9
2023-09-14T21:01:10.461Z,9.8
2023-09-14T21:02:31.593Z,9.9
2023-09-14T21:03:52.700Z,9.8
2023-09-14T21:05:13.802Z,9.8
2023-09-14T21:06:34.912Z,9.7
2023-09-14T21:07:56.028Z,9.6
2023-09-14T21:09:17.126Z,9.8
2023-09-14T21:10:38.249Z,9.7
2023-09-14T21:11:59.368Z,9.6
2023-09-14T21:13:20.444Z,9.5
2023-09-14T21:14:40.565Z,9.6
2023-09-14T21:16:01.693Z,9.6
2023-09-14T21:17:22.783Z,9.6
2023-09-14T21:18:43.891Z,9.6
2023-09-14T21:34:04.858Z,9.4
2023-09-14T21:49:25.821Z,9.3
2023-09-14T22:04:46.808Z,9.2
2023-09-14T22:20:07.772Z,9.1
2023-09-14T22:35:28.749Z,8.9
2023-09-14T22:50:49.718Z,9
2023-09-14T23:06:10.671Z,8.8
2023-09-14T23:21:31.658Z,8.8
2023-09-14T23:36:52.611Z,8.9
2023-09-14T23:52:12.589Z,8.4
